sensor_id;sensor_type;location;lat;lon;timestamp;temperature;humidity
61016;DHT22;46902;52.920;6.536;2023-04-01T00:00:18;10.50;99.90
61016;DHT22;46902;52.920;6.536;2023-04-01T00:02:43;10.60;99.90
61016;DHT22;46902;52.920;6.536;2023-04-01T00:05:10;10.50;99.90
61016;DHT22;46902;52.920;6.536;2023-04-01T00:07:36;10.50;99.90
61016;DHT22;46902;52.920;6.536;2023-04-01T00:10:03;10.50;99.90
61016;DHT22;46902;52.920;6.536;2023-04-01T00:12:29;10.50;99.90
61016;DHT22;46902;52.920;6.536;2023-04-01T00:14:55;10.50;99.90
61016;DHT22;46902;52.920;6.536;2023-04-01T00:17:21;10.50;99.90
61016;DHT22;46902;52.920;6.536;2023-04-01T00:19:47;10.50;99.90
61016;DHT22;46902;52.920;6.536;2023-04-01T00:22:13;10.50;99.90
61016;DHT22;46902;52.920;6.536;2023-04-01T00:24:39;10.50;99.90
61016;DHT22;46902;52.920;6.536;2023-04-01T00:27:04;10.50;99.90
61016;DHT22;46902;52.920;6.536;2023-04-01T00:29:30;10.50;99.90
61016;DHT22;46902;52.920;6.536;2023-04-01T00:31:57;10.50;99.90
61016;DHT22;46902;52.920;6.536;2023-04-01T00:34:23;10.40;99.90
61016;DHT22;46902;52.920;6.536;2023-04-01T00:36:50;10.40;99.90
61016;DHT22;46902;52.920;6.536;2023-04-01T00:39:16;10.50;99.90
61016;DHT22;46902;52.920;6.536;2023-04-01T00:41:41;10.40;99.90
61016;DHT22;46902;52.920;6.536;2023-04-01T00:44:23;10.40;99.90
61016;DHT22;46902;52.920;6.536;2023-04-01T00:46:48;10.50;99.90
61016;DHT22;46902;52.920;6.536;2023-04-01T00:49:16;10.40;99.90
61016;DHT22;46902;52.920;6.536;2023-04-01T00:51:45;10.40;99.90
61016;DHT22;46902;52.920;6.536;2023-04-01T00:54:12;10.40;99.90
61016;DHT22;46902;52.920;6.536;2023-04-01T00:56:46;10.40;99.90
61016;DHT22;46902;52.920;6.536;2023-04-01T00:59:22;10.40;99.90
61016;DHT22;46902;52.920;6.536;2023-04-01T01:01:49;10.40;99.90
61016;DHT22;46902;52.920;6.536;2023-04-01T01:04:27;10.40;99.90
61016;DHT22;46902;52.920;6.536;2023-04-01T01:12:18;10.40;99.90
61016;DHT22;46902;52.920;6.536;2023-04-01T01:37:34;10.20;99.90
61016;DHT22;46902;52.920;6.536;2023-04-01T01:40:04;10.20;99.90
61016;DHT22;46902;52.920;6.536;2023-04-01T01:42:32;10.20;99.90
61016;DHT22;46902;52.920;6.536;2023-04-01T01:45:00;10.10;99.90
61016;DHT22;46902;52.920;6.536;2023-04-01T01:47:28;10.20;99.90
61016;DHT22;46902;52.920;6.536;2023-04-01T01:49:55;10.20;99.90
61016;DHT22;46902;52.920;6.536;2023-04-01T01:52:24;10.10;99.90
61016;DHT22;46902;52.920;6.536;2023-04-01T01:54:54;10.10;99.90
61016;DHT22;46902;52.920;6.536;2023-04-01T01:57:24;10.10;99.90
61016;DHT22;46902;52.920;6.536;2023-04-01T01:59:52;10.20;99.90
61016;DHT22;46902;52.920;6.536;2023-04-01T02:02:21;10.20;99.90
61016;DHT22;46902;52.920;6.536;2023-04-01T02:04:47;10.20;99.90
61016;DHT22;46902;52.920;6.536;2023-04-01T02:07:18;10.20;99.90
61016;DHT22;46902;52.920;6.536;2023-04-01T02:09:45;10.20;99.90
61016;DHT22;46902;52.920;6.536;2023-04-01T02:12:14;10.20;99.90
61016;DHT22;46902;52.920;6.536;2023-04-01T02:15:04;10.20;99.90
61016;DHT22;46902;52.920;6.536;2023-04-01T02:17:33;10.30;99.90
61016;DHT22;46902;52.920;6.536;2023-04-01T02:20:07;10.20;99.90
61016;DHT22;46902;52.920;6.536;2023-04-01T02:22:37;10.20;99.90
61016;DHT22;46902;52.920;6.536;2023-04-01T02:25:12;10.20;99.90
61016;DHT22;46902;52.920;6.536;2023-04-01T02:27:39;10.30;99.90
61016;DHT22;46902;52.920;6.536;2023-04-01T02:30:06;10.30;99.90
61016;DHT22;46902;52.920;6.536;2023-04-01T02:32:33;10.20;99.90
61016;DHT22;46902;52.920;6.536;2023-04-01T02:35:00;10.20;99.90
61016;DHT22;46902;52.920;6.536;2023-04-01T02:37:28;10.30;99.90
61016;DHT22;46902;52.920;6.536;2023-04-01T02:39:58;10.30;99.90
61016;DHT22;46902;52.920;6.536;2023-04-01T02:42:24;10.20;99.90
61016;DHT22;46902;52.920;6.536;2023-04-01T02:44:49;10.30;99.90
61016;DHT22;46902;52.920;6.536;2023-04-01T02:47:15;10.30;99.90
61016;DHT22;46902;52.920;6.536;2023-04-01T02:49:40;10.40;99.90
61016;DHT22;46902;52.920;6.536;2023-04-01T02:52:07;10.30;99.90
61016;DHT22;46902;52.920;6.536;2023-04-01T02:54:32;10.30;99.90
61016;DHT22;46902;52.920;6.536;2023-04-01T02:56:58;10.30;99.90
61016;DHT22;46902;52.920;6.536;2023-04-01T02:59:23;10.30;99.90
61016;DHT22;46902;52.920;6.536;2023-04-01T03:01:49;10.40;99.90
61016;DHT22;46902;52.920;6.536;2023-04-01T03:04:14;10.30;99.90
61016;DHT22;46902;52.920;6.536;2023-04-01T03:06:40;10.30;99.90
61016;DHT22;46902;52.920;6.536;2023-04-01T03:09:06;10.30;99.90
61016;DHT22;46902;52.920;6.536;2023-04-01T03:11:31;10.40;99.90
61016;DHT22;46902;52.920;6.536;2023-04-01T03:13:57;10.30;99.90
61016;DHT22;46902;52.920;6.536;2023-04-01T03:16:22;10.30;99.90
61016;DHT22;46902;52.920;6.536;2023-04-01T03:18:48;10.40;99.90
61016;DHT22;46902;52.920;6.536;2023-04-01T03:21:21;10.30;99.90
61016;DHT22;46902;52.920;6.536;2023-04-01T03:23:47;10.40;99.90
61016;DHT22;46902;52.920;6.536;2023-04-01T03:26:13;10.30;99.90
61016;DHT22;46902;52.920;6.536;2023-04-01T03:28:38;10.40;99.90
61016;DHT22;46902;52.920;6.536;2023-04-01T03:31:05;10.30;99.90
61016;DHT22;46902;52.920;6.536;2023-04-01T03:33:31;10.40;99.90
61016;DHT22;46902;52.920;6.536;2023-04-01T03:35:57;10.40;99.90
61016;DHT22;46902;52.920;6.536;2023-04-01T03:38:23;10.40;99.90
61016;DHT22;46902;52.920;6.536;2023-04-01T03:40:49;10.40;99.90
61016;DHT22;46902;52.920;6.536;2023-04-01T03:43:14;10.40;99.90
61016;DHT22;46902;52.920;6.536;2023-04-01T03:45:49;10.40;99.90
61016;DHT22;46902;52.920;6.536;2023-04-01T03:48:15;10.40;99.90
61016;DHT22;46902;52.920;6.536;2023-04-01T03:50:42;10.40;99.90
61016;DHT22;46902;52.920;6.536;2023-04-01T03:53:07;10.40;99.90
61016;DHT22;46902;52.920;6.536;2023-04-01T03:55:33;10.30;99.90
61016;DHT22;46902;52.920;6.536;2023-04-01T03:58:00;10.30;99.90
61016;DHT22;46902;52.920;6.536;2023-04-01T04:00:28;10.40;99.90
61016;DHT22;46902;52.920;6.536;2023-04-01T04:02:54;10.40;99.90
61016;DHT22;46902;52.920;6.536;2023-04-01T04:05:21;10.40;99.90
61016;DHT22;46902;52.920;6.536;2023-04-01T04:07:46;10.40;99.90
61016;DHT22;46902;52.920;6.536;2023-04-01T04:10:12;10.40;99.90
61016;DHT22;46902;52.920;6.536;2023-04-01T04:12:37;10.30;99.90
61016;DHT22;46902;52.920;6.536;2023-04-01T04:15:03;10.40;99.90
61016;DHT22;46902;52.920;6.536;2023-04-01T04:17:29;10.30;99.90
61016;DHT22;46902;52.920;6.536;2023-04-01T04:19:54;10.30;99.90
61016;DHT22;46902;52.920;6.536;2023-04-01T04:22:20;10.30;99.90
61016;DHT22;46902;52.920;6.536;2023-04-01T04:24:46;10.30;99.90
61016;DHT22;46902;52.920;6.536;2023-04-01T04:27:11;10.30;99.90
61016;DHT22;46902;52.920;6.536;2023-04-01T04:29:37;10.30;99.90
61016;DHT22;46902;52.920;6.536;2023-04-01T04:32:02;10.30;99.90
61016;DHT22;46902;52.920;6.536;2023-04-01T04:34:28;10.30;99.90
61016;DHT22;46902;52.920;6.536;2023-04-01T04:36:53;10.30;99.90
61016;DHT22;46902;52.920;6.536;2023-04-01T04:39:19;10.30;99.90
61016;DHT22;46902;52.920;6.536;2023-04-01T04:41:45;10.30;99.90
61016;DHT22;46902;52.920;6.536;2023-04-01T04:44:11;10.30;99.90
61016;DHT22;46902;52.920;6.536;2023-04-01T04:46:36;10.30;99.90
61016;DHT22;46902;52.920;6.536;2023-04-01T04:49:05;10.30;99.90
61016;DHT22;46902;52.920;6.536;2023-04-01T04:51:30;10.30;99.90
61016;DHT22;46902;52.920;6.536;2023-04-01T04:53:59;10.30;99.90
61016;DHT22;46902;52.920;6.536;2023-04-01T04:56:25;10.30;99.90
61016;DHT22;46902;52.920;6.536;2023-04-01T04:58:51;10.30;99.90
61016;DHT22;46902;52.920;6.536;2023-04-01T05:01:18;10.20;99.90
61016;DHT22;46902;52.920;6.536;2023-04-01T05:03:43;10.30;99.90
61016;DHT22;46902;52.920;6.536;2023-04-01T05:06:11;10.30;99.90
61016;DHT22;46902;52.920;6.536;2023-04-01T05:08:37;10.30;99.90
61016;DHT22;46902;52.920;6.536;2023-04-01T05:11:07;10.30;99.90
61016;DHT22;46902;52.920;6.536;2023-04-01T05:13:35;10.20;99.90
61016;DHT22;46902;52.920;6.536;2023-04-01T05:16:01;10.30;99.90
61016;DHT22;46902;52.920;6.536;2023-04-01T05:18:27;10.30;99.90
61016;DHT22;46902;52.920;6.536;2023-04-01T05:20:54;10.30;99.90
61016;DHT22;46902;52.920;6.536;2023-04-01T05:23:21;10.20;99.90
61016;DHT22;46902;52.920;6.536;2023-04-01T05:25:50;10.20;99.90
61016;DHT22;46902;52.920;6.536;2023-04-01T05:28:19;10.20;99.90
61016;DHT22;46902;52.920;6.536;2023-04-01T05:30:45;10.20;99.90
61016;DHT22;46902;52.920;6.536;2023-04-01T05:33:12;10.20;99.90
61016;DHT22;46902;52.920;6.536;2023-04-01T05:35:39;10.30;99.90
61016;DHT22;46902;52.920;6.536;2023-04-01T05:38:05;10.20;99.90
61016;DHT22;46902;52.920;6.536;2023-04-01T05:40:31;10.30;99.90
61016;DHT22;46902;52.920;6.536;2023-04-01T05:42:58;10.30;99.90
61016;DHT22;46902;52.920;6.536;2023-04-01T05:45:24;10.30;99.90
61016;DHT22;46902;52.920;6.536;2023-04-01T05:47:49;10.20;99.90
61016;DHT22;46902;52.920;6.536;2023-04-01T05:50:15;10.20;99.90
61016;DHT22;46902;52.920;6.536;2023-04-01T05:52:42;10.20;99.90
61016;DHT22;46902;52.920;6.536;2023-04-01T05:55:07;10.20;99.90
61016;DHT22;46902;52.920;6.536;2023-04-01T05:57:33;10.30;99.90
61016;DHT22;46902;52.920;6.536;2023-04-01T05:59:59;10.30;99.90
61016;DHT22;46902;52.920;6.536;2023-04-01T06:02:24;10.30;99.90
61016;DHT22;46902;52.920;6.536;2023-04-01T06:04:59;10.30;99.90
61016;DHT22;46902;52.920;6.536;2023-04-01T06:07:27;10.30;99.90
61016;DHT22;46902;52.920;6.536;2023-04-01T06:09:54;10.30;99.90
61016;DHT22;46902;52.920;6.536;2023-04-01T06:12:32;10.30;99.90
61016;DHT22;46902;52.920;6.536;2023-04-01T06:23:28;10.40;99.90
61016;DHT22;46902;52.920;6.536;2023-04-01T06:29:04;10.30;99.90
61016;DHT22;46902;52.920;6.536;2023-04-01T06:43:59;10.40;99.90
61016;DHT22;46902;52.920;6.536;2023-04-01T06:46:45;10.30;99.90
61016;DHT22;46902;52.920;6.536;2023-04-01T06:52:19;10.40;99.90
61016;DHT22;46902;52.920;6.536;2023-04-01T06:54:54;10.40;99.90
61016;DHT22;46902;52.920;6.536;2023-04-01T07:00:25;10.40;99.90
61016;DHT22;46902;52.920;6.536;2023-04-01T07:03:23;10.40;99.90
61016;DHT22;46902;52.920;6.536;2023-04-01T07:05:52;10.50;99.90
61016;DHT22;46902;52.920;6.536;2023-04-01T07:08:24;10.40;99.90
61016;DHT22;46902;52.920;6.536;2023-04-01T07:10:56;10.40;99.90
61016;DHT22;46902;52.920;6.536;2023-04-01T07:13:39;10.40;99.90
61016;DHT22;46902;52.920;6.536;2023-04-01T07:18:52;10.40;99.90
61016;DHT22;46902;52.920;6.536;2023-04-01T07:21:28;10.40;99.90
61016;DHT22;46902;52.920;6.536;2023-04-01T07:23:58;10.40;99.90
61016;DHT22;46902;52.920;6.536;2023-04-01T07:26:26;10.40;99.90
61016;DHT22;46902;52.920;6.536;2023-04-01T07:28:53;10.40;99.90
61016;DHT22;46902;52.920;6.536;2023-04-01T07:31:25;10.40;99.90
61016;DHT22;46902;52.920;6.536;2023-04-01T07:45:36;10.60;99.90
61016;DHT22;46902;52.920;6.536;2023-04-01T07:51:02;10.70;99.90
61016;DHT22;46902;52.920;6.536;2023-04-01T07:53:34;10.70;99.90
61016;DHT22;46902;52.920;6.536;2023-04-01T07:56:11;10.80;99.90
61016;DHT22;46902;52.920;6.536;2023-04-01T08:01:48;10.90;99.90
61016;DHT22;46902;52.920;6.536;2023-04-01T08:06:51;11.10;99.90
61016;DHT22;46902;52.920;6.536;2023-04-01T08:09:25;11.20;99.90
61016;DHT22;46902;52.920;6.536;2023-04-01T08:15:01;11.20;99.90
61016;DHT22;46902;52.920;6.536;2023-04-01T08:20:07;11.30;99.90
61016;DHT22;46902;52.920;6.536;2023-04-01T08:22:50;11.30;99.90
61016;DHT22;46902;52.920;6.536;2023-04-01T08:25:20;11.40;99.90
61016;DHT22;46902;52.920;6.536;2023-04-01T08:28:00;11.40;99.90
61016;DHT22;46902;52.920;6.536;2023-04-01T08:30:39;11.50;99.90
61016;DHT22;46902;52.920;6.536;2023-04-01T08:33:25;11.50;99.90
61016;DHT22;46902;52.920;6.536;2023-04-01T08:36:08;11.50;99.90
61016;DHT22;46902;52.920;6.536;2023-04-01T08:42:04;11.40;99.90
61016;DHT22;46902;52.920;6.536;2023-04-01T08:44:43;11.40;99.90
61016;DHT22;46902;52.920;6.536;2023-04-01T08:58:32;11.50;99.90
61016;DHT22;46902;52.920;6.536;2023-04-01T09:03:54;11.60;99.90
61016;DHT22;46902;52.920;6.536;2023-04-01T09:06:40;11.40;99.90
61016;DHT22;46902;52.920;6.536;2023-04-01T09:09:34;11.40;99.90
61016;DHT22;46902;52.920;6.536;2023-04-01T09:12:25;11.30;99.90
61016;DHT22;46902;52.920;6.536;2023-04-01T09:35:26;11.70;99.90
61016;DHT22;46902;52.920;6.536;2023-04-01T09:38:20;11.60;99.90
61016;DHT22;46902;52.920;6.536;2023-04-01T09:40:48;11.60;99.90
61016;DHT22;46902;52.920;6.536;2023-04-01T09:43:28;11.60;99.90
61016;DHT22;46902;52.920;6.536;2023-04-01T09:46:24;11.60;99.90
61016;DHT22;46902;52.920;6.536;2023-04-01T09:48:59;11.60;99.90
61016;DHT22;46902;52.920;6.536;2023-04-01T10:03:10;11.50;99.90
61016;DHT22;46902;52.920;6.536;2023-04-01T10:06:06;11.50;99.90
61016;DHT22;46902;52.920;6.536;2023-04-01T10:30:50;11.60;99.90
61016;DHT22;46902;52.920;6.536;2023-04-01T10:38:55;11.50;99.90
61016;DHT22;46902;52.920;6.536;2023-04-01T10:41:42;11.50;99.90
61016;DHT22;46902;52.920;6.536;2023-04-01T10:50:16;11.40;99.90
61016;DHT22;46902;52.920;6.536;2023-04-01T10:53:01;11.30;99.90
61016;DHT22;46902;52.920;6.536;2023-04-01T11:14:53;11.00;99.90
61016;DHT22;46902;52.920;6.536;2023-04-01T11:26:06;10.90;99.90
61016;DHT22;46902;52.920;6.536;2023-04-01T11:29:43;11.00;99.90
61016;DHT22;46902;52.920;6.536;2023-04-01T11:40:14;10.80;99.90
61016;DHT22;46902;52.920;6.536;2023-04-01T11:43:15;10.80;99.90
61016;DHT22;46902;52.920;6.536;2023-04-01T11:48:28;10.70;99.90
61016;DHT22;46902;52.920;6.536;2023-04-01T11:56:31;10.60;99.90
61016;DHT22;46902;52.920;6.536;2023-04-01T11:59:04;10.60;99.90
61016;DHT22;46902;52.920;6.536;2023-04-01T12:02:03;10.60;99.90
61016;DHT22;46902;52.920;6.536;2023-04-01T12:04:36;10.50;99.90
61016;DHT22;46902;52.920;6.536;2023-04-01T12:07:31;10.50;99.90
61016;DHT22;46902;52.920;6.536;2023-04-01T12:10:18;10.50;99.90
61016;DHT22;46902;52.920;6.536;2023-04-01T12:13:05;10.60;99.90
61016;DHT22;46902;52.920;6.536;2023-04-01T12:15:36;10.60;99.90
61016;DHT22;46902;52.920;6.536;2023-04-01T12:18:40;10.50;99.90
61016;DHT22;46902;52.920;6.536;2023-04-01T12:21:14;10.50;99.90
61016;DHT22;46902;52.920;6.536;2023-04-01T12:53:23;10.40;99.90
61016;DHT22;46902;52.920;6.536;2023-04-01T12:55:59;10.40;99.90
61016;DHT22;46902;52.920;6.536;2023-04-01T13:01:19;10.40;99.90
61016;DHT22;46902;52.920;6.536;2023-04-01T13:16:07;10.20;99.90
61016;DHT22;46902;52.920;6.536;2023-04-01T13:24:03;10.20;99.90
61016;DHT22;46902;52.920;6.536;2023-04-01T13:26:51;10.10;99.90
61016;DHT22;46902;52.920;6.536;2023-04-01T13:29:28;10.00;99.90
61016;DHT22;46902;52.920;6.536;2023-04-01T13:42:53;10.00;99.90
61016;DHT22;46902;52.920;6.536;2023-04-01T13:46:02;10.00;99.90
61016;DHT22;46902;52.920;6.536;2023-04-01T13:48:50;9.90;99.90
61016;DHT22;46902;52.920;6.536;2023-04-01T13:54:39;9.90;99.90
61016;DHT22;46902;52.920;6.536;2023-04-01T14:00:00;9.90;99.90
61016;DHT22;46902;52.920;6.536;2023-04-01T14:02:44;9.80;99.90
61016;DHT22;46902;52.920;6.536;2023-04-01T14:05:32;9.80;99.90
61016;DHT22;46902;52.920;6.536;2023-04-01T14:08:16;9.80;99.90
61016;DHT22;46902;52.920;6.536;2023-04-01T14:11:02;9.80;99.90
61016;DHT22;46902;52.920;6.536;2023-04-01T14:13:43;9.70;99.90
61016;DHT22;46902;52.920;6.536;2023-04-01T14:17:13;9.80;99.90
61016;DHT22;46902;52.920;6.536;2023-04-01T14:27:34;9.60;99.90
61016;DHT22;46902;52.920;6.536;2023-04-01T14:38:43;9.50;99.90
61016;DHT22;46902;52.920;6.536;2023-04-01T14:44:05;9.50;99.90
61016;DHT22;46902;52.920;6.536;2023-04-01T14:47:02;9.50;99.90
61016;DHT22;46902;52.920;6.536;2023-04-01T14:52:11;9.40;99.90
61016;DHT22;46902;52.920;6.536;2023-04-01T14:54:42;9.50;99.90
61016;DHT22;46902;52.920;6.536;2023-04-01T14:57:30;9.50;99.90
61016;DHT22;46902;52.920;6.536;2023-04-01T15:10:53;9.50;99.90
61016;DHT22;46902;52.920;6.536;2023-04-01T15:18:48;9.30;99.90
61016;DHT22;46902;52.920;6.536;2023-04-01T15:27:19;9.30;99.90
61016;DHT22;46902;52.920;6.536;2023-04-01T15:32:52;9.30;99.90
61016;DHT22;46902;52.920;6.536;2023-04-01T15:38:06;9.30;99.90
61016;DHT22;46902;52.920;6.536;2023-04-01T15:40:47;9.30;99.90
61016;DHT22;46902;52.920;6.536;2023-04-01T15:43:44;9.30;99.90
61016;DHT22;46902;52.920;6.536;2023-04-01T15:52:10;9.20;99.90
61016;DHT22;46902;52.920;6.536;2023-04-01T15:55:10;9.20;99.90
61016;DHT22;46902;52.920;6.536;2023-04-01T16:06:12;9.10;99.90
61016;DHT22;46902;52.920;6.536;2023-04-01T16:14:43;9.00;99.90
61016;DHT22;46902;52.920;6.536;2023-04-01T16:17:25;9.00;99.90
61016;DHT22;46902;52.920;6.536;2023-04-01T16:23:00;8.90;99.90
61016;DHT22;46902;52.920;6.536;2023-04-01T16:28:25;8.90;99.90
61016;DHT22;46902;52.920;6.536;2023-04-01T16:33:40;8.80;99.90
61016;DHT22;46902;52.920;6.536;2023-04-01T16:36:21;8.80;99.90
61016;DHT22;46902;52.920;6.536;2023-04-01T16:39:26;8.80;99.90
61016;DHT22;46902;52.920;6.536;2023-04-01T16:44:56;8.70;99.90
61016;DHT22;46902;52.920;6.536;2023-04-01T16:47:30;8.70;99.90
61016;DHT22;46902;52.920;6.536;2023-04-01T16:50:13;8.60;99.90
61016;DHT22;46902;52.920;6.536;2023-04-01T16:55:19;8.50;99.90
61016;DHT22;46902;52.920;6.536;2023-04-01T16:57:56;8.50;99.90
61016;DHT22;46902;52.920;6.536;2023-04-01T17:00:27;8.40;99.90
61016;DHT22;46902;52.920;6.536;2023-04-01T17:03:15;8.40;99.90
61016;DHT22;46902;52.920;6.536;2023-04-01T17:06:03;8.40;99.90
61016;DHT22;46902;52.920;6.536;2023-04-01T17:08:48;8.30;99.90
61016;DHT22;46902;52.920;6.536;2023-04-01T17:11:19;8.30;99.90
61016;DHT22;46902;52.920;6.536;2023-04-01T17:16:48;8.30;99.90
61016;DHT22;46902;52.920;6.536;2023-04-01T17:24:55;8.20;99.90
61016;DHT22;46902;52.920;6.536;2023-04-01T17:30:33;8.20;99.90
61016;DHT22;46902;52.920;6.536;2023-04-01T17:36:09;8.00;99.90
61016;DHT22;46902;52.920;6.536;2023-04-01T17:39:02;8.00;99.90
61016;DHT22;46902;52.920;6.536;2023-04-01T17:51:42;7.80;99.90
61016;DHT22;46902;52.920;6.536;2023-04-01T17:57:14;7.80;99.90
61016;DHT22;46902;52.920;6.536;2023-04-01T18:00:02;7.70;99.90
61016;DHT22;46902;52.920;6.536;2023-04-01T18:02:31;7.70;99.90
61016;DHT22;46902;52.920;6.536;2023-04-01T18:10:28;7.60;99.90
61016;DHT22;46902;52.920;6.536;2023-04-01T18:16:32;7.60;99.90
61016;DHT22;46902;52.920;6.536;2023-04-01T18:21:48;7.50;99.90
61016;DHT22;46902;52.920;6.536;2023-04-01T18:24:43;7.50;99.90
61016;DHT22;46902;52.920;6.536;2023-04-01T18:27:24;7.50;99.90
61016;DHT22;46902;52.920;6.536;2023-04-01T18:32:56;7.40;99.90
61016;DHT22;46902;52.920;6.536;2023-04-01T18:43:30;7.30;99.90
61016;DHT22;46902;52.920;6.536;2023-04-01T18:46:30;7.30;99.90
61016;DHT22;46902;52.920;6.536;2023-04-01T18:51:53;7.30;99.90
61016;DHT22;46902;52.920;6.536;2023-04-01T18:57:22;7.30;99.90
61016;DHT22;46902;52.920;6.536;2023-04-01T18:59:53;7.30;99.90
61016;DHT22;46902;52.920;6.536;2023-04-01T19:02:48;7.20;99.90
61016;DHT22;46902;52.920;6.536;2023-04-01T19:05:41;7.20;99.90
61016;DHT22;46902;52.920;6.536;2023-04-01T19:08:26;7.20;99.90
61016;DHT22;46902;52.920;6.536;2023-04-01T19:13:46;7.20;99.90
61016;DHT22;46902;52.920;6.536;2023-04-01T19:27:11;7.10;99.90
61016;DHT22;46902;52.920;6.536;2023-04-01T19:35:44;7.10;99.90
61016;DHT22;46902;52.920;6.536;2023-04-01T19:38:40;7.10;99.90
61016;DHT22;46902;52.920;6.536;2023-04-01T19:41:40;7.00;99.90
61016;DHT22;46902;52.920;6.536;2023-04-01T19:44:25;7.00;99.90
61016;DHT22;46902;52.920;6.536;2023-04-01T19:50:14;7.00;99.90
61016;DHT22;46902;52.920;6.536;2023-04-01T19:52:47;7.00;99.90
61016;DHT22;46902;52.920;6.536;2023-04-01T19:55:36;6.90;99.90
61016;DHT22;46902;52.920;6.536;2023-04-01T20:01:10;6.90;99.90
61016;DHT22;46902;52.920;6.536;2023-04-01T20:04:00;6.90;99.90
61016;DHT22;46902;52.920;6.536;2023-04-01T20:06:37;6.90;99.90
61016;DHT22;46902;52.920;6.536;2023-04-01T20:14:38;6.80;99.90
61016;DHT22;46902;52.920;6.536;2023-04-01T20:20:00;6.80;99.90
61016;DHT22;46902;52.920;6.536;2023-04-01T20:33:19;6.70;99.90
61016;DHT22;46902;52.920;6.536;2023-04-01T20:50:27;6.50;99.90
61016;DHT22;46902;52.920;6.536;2023-04-01T20:53:20;6.50;99.90
61016;DHT22;46902;52.920;6.536;2023-04-01T20:58:24;6.50;99.90
61016;DHT22;46902;52.920;6.536;2023-04-01T21:06:22;6.50;99.90
61016;DHT22;46902;52.920;6.536;2023-04-01T21:14:32;6.40;99.90
61016;DHT22;46902;52.920;6.536;2023-04-01T21:17:33;6.40;99.90
61016;DHT22;46902;52.920;6.536;2023-04-01T21:28:17;6.40;99.90
61016;DHT22;46902;52.920;6.536;2023-04-01T21:31:06;6.40;99.90
61016;DHT22;46902;52.920;6.536;2023-04-01T21:39:32;6.30;99.90
61016;DHT22;46902;52.920;6.536;2023-04-01T21:57:01;6.30;99.90
61016;DHT22;46902;52.920;6.536;2023-04-01T21:59:55;6.20;99.90
61016;DHT22;46902;52.920;6.536;2023-04-01T22:10:32;6.10;99.90
61016;DHT22;46902;52.920;6.536;2023-04-01T22:13:11;6.10;99.90
61016;DHT22;46902;52.920;6.536;2023-04-01T22:18:33;6.10;99.90
61016;DHT22;46902;52.920;6.536;2023-04-01T22:21:09;6.10;99.90
61016;DHT22;46902;52.920;6.536;2023-04-01T22:23:47;6.10;99.90
61016;DHT22;46902;52.920;6.536;2023-04-01T22:26:26;6.10;99.90
61016;DHT22;46902;52.920;6.536;2023-04-01T22:29:07;6.10;99.90
61016;DHT22;46902;52.920;6.536;2023-04-01T22:31:47;6.10;99.90
61016;DHT22;46902;52.920;6.536;2023-04-01T22:34:41;6.00;99.90
61016;DHT22;46902;52.920;6.536;2023-04-01T22:37:21;6.00;99.90
61016;DHT22;46902;52.920;6.536;2023-04-01T22:42:44;6.00;99.90
61016;DHT22;46902;52.920;6.536;2023-04-01T22:47:59;5.90;99.90
61016;DHT22;46902;52.920;6.536;2023-04-01T22:55:46;5.90;99.90
61016;DHT22;46902;52.920;6.536;2023-04-01T22:58:24;5.80;99.90
61016;DHT22;46902;52.920;6.536;2023-04-01T23:01:01;5.80;99.90
61016;DHT22;46902;52.920;6.536;2023-04-01T23:03:32;5.80;99.90
61016;DHT22;46902;52.920;6.536;2023-04-01T23:06:03;5.80;99.90
61016;DHT22;46902;52.920;6.536;2023-04-01T23:11:04;5.70;99.90
61016;DHT22;46902;52.920;6.536;2023-04-01T23:13:36;5.70;99.90
61016;DHT22;46902;52.920;6.536;2023-04-01T23:16:04;5.70;99.90
61016;DHT22;46902;52.920;6.536;2023-04-01T23:18:34;5.60;99.90
61016;DHT22;46902;52.920;6.536;2023-04-01T23:21:21;5.70;99.90
61016;DHT22;46902;52.920;6.536;2023-04-01T23:29:01;5.70;99.90
61016;DHT22;46902;52.920;6.536;2023-04-01T23:31:29;5.60;99.90
61016;DHT22;46902;52.920;6.536;2023-04-01T23:34:04;5.60;99.90
61016;DHT22;46902;52.920;6.536;2023-04-01T23:36:32;5.60;99.90
61016;DHT22;46902;52.920;6.536;2023-04-01T23:39:06;5.60;99.90
61016;DHT22;46902;52.920;6.536;2023-04-01T23:41:37;5.50;99.90
61016;DHT22;46902;52.920;6.536;2023-04-01T23:44:07;5.50;99.90
61016;DHT22;46902;52.920;6.536;2023-04-01T23:46:35;5.50;99.90
61016;DHT22;46902;52.920;6.536;2023-04-01T23:49:03;5.50;99.90
61016;DHT22;46902;52.920;6.536;2023-04-01T23:51:46;5.50;99.90
61016;DHT22;46902;52.920;6.536;2023-04-01T23:54:42;5.50;99.90
61016;DHT22;46902;52.920;6.536;2023-04-01T23:57:11;5.40;99.90
61016;DHT22;46902;52.920;6.536;2023-04-01T23:59:37;5.40;99.90
